Time;durP1;ratioP1;P1;durP2;ratioP2;P2;SDS_P1;SDS_P2;PMS_P1;PMS_P2;Temp;Humidity;BMP_temperature;BMP_pressure;BME280_temperature;BME280_humidity;BME280_pressure;Samples;Min_cycle;Max_cycle;Signal;HPM_P1;HPM_P2
2023/06/20 00:02:17;;;;;;;11.43;9.97;;;;;;;19.05;100.00;101491.53;5062350;28;20217;-70
2023/06/20 00:04:42;;;;;;;11.93;10.13;;;;;;;19.00;100.00;101492.41;5064210;28;20213;-71
2023/06/20 00:07:08;;;;;;;10.20;9.20;;;;;;;18.90;100.00;101494.19;5064600;28;20201;-71
2023/06/20 00:09:34;;;;;;;11.53;10.00;;;;;;;18.90;100.00;101489.00;5063990;28;20646;-71
2023/06/20 00:11:59;;;;;;;10.73;9.67;;;;;;;18.84;100.00;101486.41;5064344;28;20197;-71
2023/06/20 00:14:25;;;;;;;11.70;10.00;;;;;;;18.75;100.00;101483.00;5062631;28;20216;-71
2023/06/20 00:16:50;;;;;;;11.43;10.00;;;;;;;18.72;100.00;101490.78;5066458;28;20255;-71
2023/06/20 00:19:15;;;;;;;11.93;10.70;;;;;;;18.65;100.00;101489.94;5063323;28;20265;-71
2023/06/20 00:21:41;;;;;;;13.17;10.63;;;;;;;18.67;100.00;101490.81;5062486;28;20655;-71
2023/06/20 00:24:10;;;;;;;11.67;10.40;;;;;;;18.66;100.00;101488.22;5062072;28;20247;-71
2023/06/20 00:26:37;;;;;;;11.40;10.17;;;;;;;18.62;100.00;101489.09;5062302;28;20190;-71
2023/06/20 00:29:03;;;;;;;10.80;9.67;;;;;;;18.55;100.00;101484.78;5059038;28;20764;-71
2023/06/20 00:31:30;;;;;;;10.83;9.73;;;;;;;18.41;100.00;101483.94;5081784;28;20654;-71
2023/06/20 00:33:55;;;;;;;10.73;9.63;;;;;;;18.54;100.00;101486.53;5063856;28;20200;-71
2023/06/20 00:36:25;;;;;;;12.23;10.30;;;;;;;18.54;100.00;101491.72;5061124;28;20489;-71
2023/06/20 00:38:51;;;;;;;10.80;9.73;;;;;;;18.50;100.00;101489.13;5062500;28;20177;-71
2023/06/20 00:41:20;;;;;;;11.87;10.70;;;;;;;18.46;100.00;101487.38;5061430;28;20719;-71
2023/06/20 00:43:49;;;;;;;11.77;10.47;;;;;;;18.38;100.00;101489.16;5059851;28;20273;-71
2023/06/20 00:46:19;;;;;;;10.97;9.87;;;;;;;18.32;100.00;101482.22;5065089;28;20213;-71
2023/06/20 00:48:46;;;;;;;11.97;9.93;;;;;;;18.23;100.00;101497.78;5060966;28;20189;-71
2023/06/20 00:51:12;;;;;;;11.70;10.50;;;;;;;18.18;100.00;101493.47;5058866;28;20214;-70
2023/06/20 00:53:38;;;;;;;13.43;10.37;;;;;;;18.18;100.00;101490.88;5065109;28;20201;-70
2023/06/20 00:56:04;;;;;;;11.70;10.60;;;;;;;17.98;100.00;101495.22;5060091;28;20213;-70
2023/06/20 00:58:30;;;;;;;11.23;10.13;;;;;;;18.00;100.00;101493.50;5062734;28;20201;-70
2023/06/20 01:00:55;;;;;;;14.43;10.73;;;;;;;18.04;100.00;101492.59;5063897;28;20254;-70
2023/06/20 01:03:21;;;;;;;13.90;10.73;;;;;;;18.03;100.00;101496.06;5058846;28;20197;-70
2023/06/20 01:05:58;;;;;;;12.33;11.13;;;;;;;18.04;100.00;101492.59;5063385;28;20212;-70
2023/06/20 01:09:06;;;;;;;12.77;11.47;;;;;;;18.01;100.00;101493.47;5063095;28;20566;-70
2023/06/20 01:11:51;;;;;;;14.27;12.57;;;;;;;17.95;100.00;101493.50;5046913;28;20764;-70
2023/06/20 01:14:25;;;;;;;13.07;11.73;;;;;;;17.95;100.00;101490.03;5064610;28;21062;-70
2023/06/20 01:17:02;;;;;;;15.47;13.87;;;;;;;17.93;100.00;101490.03;5059709;28;20290;-70
2023/06/20 01:19:43;;;;;;;14.30;12.27;;;;;;;17.90;100.00;101500.41;5079554;28;20200;-70
2023/06/20 01:22:16;;;;;;;12.60;11.40;;;;;;;17.84;100.00;101504.72;5059613;28;20572;-71
2023/06/20 01:24:46;;;;;;;13.57;12.10;;;;;;;17.83;100.00;101496.06;5076901;28;20295;-71
2023/06/20 01:27:21;;;;;;;13.23;11.47;;;;;;;17.81;100.00;101487.44;5052584;28;20201;-71
2023/06/20 01:29:58;;;;;;;14.60;12.83;;;;;;;17.76;100.00;101494.34;5077911;28;20216;-70
2023/06/20 01:32:25;;;;;;;13.90;11.23;;;;;;;17.74;100.00;101490.88;5063727;28;20280;-71
2023/06/20 01:35:10;;;;;;;13.20;11.80;;;;;;;17.66;100.00;101496.94;5079256;28;20239;-71
2023/06/20 01:37:39;;;;;;;15.23;13.13;;;;;;;17.63;100.00;101500.38;5061961;28;20195;-71
2023/06/20 01:40:09;;;;;;;14.37;12.97;;;;;;;17.66;100.00;101502.09;5062616;28;20250;-71
2023/06/20 01:42:36;;;;;;;14.70;12.87;;;;;;;17.67;100.00;101494.34;5064345;28;20208;-71
2023/06/20 01:45:05;;;;;;;14.37;12.37;;;;;;;17.68;100.00;101492.63;5082890;28;20339;-71
2023/06/20 01:47:34;;;;;;;13.83;12.53;;;;;;;17.64;100.00;101489.16;5058036;28;20242;-71
2023/06/20 01:50:01;;;;;;;14.27;12.53;;;;;;;17.51;100.00;101490.03;5060608;28;20217;-70
2023/06/20 01:52:29;;;;;;;12.53;11.37;;;;;;;17.51;100.00;101495.19;5060544;28;20200;-71
2023/06/20 01:54:57;;;;;;;14.27;12.60;;;;;;;17.45;100.00;101499.50;5061025;28;20840;-70
2023/06/20 01:57:24;;;;;;;15.03;12.83;;;;;;;17.46;100.00;101489.13;5054820;28;20254;-70
2023/06/20 01:59:50;;;;;;;14.77;12.30;;;;;;;17.50;100.00;101483.09;5058119;28;20219;-70
2023/06/20 02:02:18;;;;;;;15.90;12.70;;;;;;;17.29;100.00;101490.78;5060571;28;20669;-71
2023/06/20 02:04:45;;;;;;;15.03;12.60;;;;;;;17.36;100.00;101489.09;5060339;28;20213;-70
2023/06/20 02:07:12;;;;;;;14.63;12.70;;;;;;;17.33;100.00;101492.53;5061248;28;20193;-70
2023/06/20 02:09:39;;;;;;;13.30;11.90;;;;;;;17.27;100.00;101494.25;5064570;28;20217;-71
2023/06/20 02:12:07;;;;;;;13.43;11.90;;;;;;;17.23;100.00;101484.72;5045392;28;20189;-71
2023/06/20 02:14:35;;;;;;;13.93;12.10;;;;;;;17.17;100.00;101475.22;5060083;28;20204;-71
2023/06/20 02:17:03;;;;;;;14.43;12.93;;;;;;;17.18;100.00;101476.94;5065404;28;21916;-71
2023/06/20 02:19:29;;;;;;;13.70;11.57;;;;;;;17.15;100.00;101478.66;5061041;28;20239;-71
2023/06/20 02:21:56;;;;;;;17.93;12.83;;;;;;;17.10;100.00;101475.19;5068169;28;20201;-70
2023/06/20 02:24:25;;;;;;;15.23;12.00;;;;;;;17.05;100.00;101474.31;5053244;28;20213;-70
2023/06/20 02:26:53;;;;;;;17.87;13.67;;;;;;;16.97;100.00;101461.38;5067164;28;20197;-70
2023/06/20 02:29:19;;;;;;;14.80;13.13;;;;;;;16.96;100.00;101467.41;5063422;28;20201;-70
2023/06/20 02:31:49;;;;;;;15.30;12.93;;;;;;;16.89;100.00;101454.41;5059712;28;20204;-70
2023/06/20 02:34:18;;;;;;;14.23;12.53;;;;;;;16.88;100.00;101463.91;5066431;28;20217;-70
2023/06/20 02:36:46;;;;;;;13.77;12.37;;;;;;;16.85;100.00;101463.91;5069659;28;20204;-70
2023/06/20 02:39:11;;;;;;;14.97;13.37;;;;;;;16.77;100.00;101455.22;5065833;28;20196;-70
2023/06/20 02:41:41;;;;;;;14.13;12.73;;;;;;;16.77;100.00;101451.78;5062689;28;20208;-70
2023/06/20 02:44:06;;;;;;;13.97;12.47;;;;;;;16.73;100.00;101456.09;5066365;28;20257;-70
2023/06/20 02:46:41;;;;;;;13.97;12.37;;;;;;;16.71;100.00;101462.97;5068933;28;20604;-70
2023/06/20 02:49:19;;;;;;;14.83;13.23;;;;;;;16.68;100.00;101464.69;5060360;28;20192;-70
2023/06/20 02:52:03;;;;;;;16.23;13.03;;;;;;;16.58;100.00;101476.69;5067783;28;20188;-70
2023/06/20 02:54:43;;;;;;;14.87;13.37;;;;;;;16.64;100.00;101474.16;5081000;28;20214;-70
2023/06/20 02:57:12;;;;;;;13.90;12.07;;;;;;;16.59;100.00;101475.00;5059947;28;20207;-70
2023/06/20 02:59:42;;;;;;;13.63;12.23;;;;;;;16.55;100.00;101471.53;5065912;28;20286;-71
2023/06/20 03:02:10;;;;;;;15.37;13.27;;;;;;;16.63;100.00;101484.50;5065476;28;20193;-71
2023/06/20 03:04:36;;;;;;;14.13;12.20;;;;;;;16.62;100.00;101477.59;5063476;28;20244;-71
2023/06/20 03:07:02;;;;;;;14.67;12.63;;;;;;;16.58;100.00;101474.13;5060840;28;20201;-71
2023/06/20 03:09:31;;;;;;;14.07;12.53;;;;;;;16.56;100.00;101474.97;5062563;28;20235;-70
2023/06/20 03:11:56;;;;;;;16.23;13.23;;;;;;;16.58;100.00;101476.69;5063933;28;20288;-71
2023/06/20 03:14:22;;;;;;;13.93;12.60;;;;;;;16.57;100.00;101481.88;5062222;28;20757;-71
2023/06/20 03:16:50;;;;;;;13.93;12.50;;;;;;;16.59;100.00;101487.91;5081087;28;20200;-71
2023/06/20 03:19:16;;;;;;;14.73;12.80;;;;;;;16.61;100.00;101481.03;5065004;28;20242;-71
2023/06/20 03:21:45;;;;;;;15.00;12.70;;;;;;;16.61;100.00;101483.59;5081175;28;20712;-71
2023/06/20 03:24:12;;;;;;;13.30;12.00;;;;;;;16.60;100.00;101480.19;5062849;28;20193;-71
2023/06/20 03:26:37;;;;;;;15.93;14.27;;;;;;;16.64;100.00;101474.16;5066638;28;20952;-72
2023/06/20 03:29:03;;;;;;;16.63;13.23;;;;;;;16.65;100.00;101475.88;5052148;28;20287;-71
2023/06/20 03:31:29;;;;;;;15.37;13.53;;;;;;;16.68;100.00;101477.63;5062498;28;20220;-71
2023/06/20 03:33:57;;;;;;;16.40;14.50;;;;;;;16.72;100.00;101475.03;5064072;28;20197;-71
2023/06/20 03:36:23;;;;;;;14.73;13.13;;;;;;;16.75;100.00;101479.38;5061177;28;20198;-71
2023/06/20 03:38:50;;;;;;;15.27;13.20;;;;;;;16.73;100.00;101481.97;5080087;28;21027;-71
2023/06/20 03:41:18;;;;;;;14.30;12.07;;;;;;;16.75;100.00;101482.81;5060355;28;20574;-72
2023/06/20 03:43:43;;;;;;;13.90;12.33;;;;;;;16.75;100.00;101485.41;5081383;28;20189;-71
2023/06/20 03:46:09;;;;;;;14.47;12.97;;;;;;;16.76;100.00;101476.78;5064792;28;20211;-71
2023/06/20 03:48:35;;;;;;;15.87;14.20;;;;;;;16.72;100.00;101485.38;5046628;28;20200;-71
2023/06/20 03:51:04;;;;;;;15.60;14.00;;;;;;;16.80;100.00;101480.28;5063330;28;20217;-71
2023/06/20 03:53:29;;;;;;;15.03;13.37;;;;;;;16.78;100.00;101487.16;5060976;28;20253;-71
2023/06/20 03:55:54;;;;;;;16.23;14.27;;;;;;;16.85;100.00;101484.59;5063571;28;20300;-71
2023/06/20 03:58:20;;;;;;;17.23;14.10;;;;;;;16.86;100.00;101486.31;5059495;28;20193;-71
2023/06/20 04:00:46;;;;;;;16.73;15.03;;;;;;;16.86;100.00;101483.72;5047704;28;20192;-71
2023/06/20 04:03:11;;;;;;;17.97;15.07;;;;;;;16.87;100.00;101487.19;5064554;28;20197;-71
2023/06/20 04:05:37;;;;;;;16.23;14.53;;;;;;;16.93;100.00;101493.25;5063482;28;20224;-71
2023/06/20 04:08:03;;;;;;;18.67;16.00;;;;;;;17.01;100.00;101488.97;5063749;28;20200;-71
2023/06/20 04:10:28;;;;;;;19.83;15.07;;;;;;;17.05;100.00;101489.84;5063269;28;20299;-71
2023/06/20 04:12:54;;;;;;;15.90;14.20;;;;;;;17.10;100.00;101485.56;5058979;28;20228;-71
2023/06/20 04:15:19;;;;;;;16.07;14.37;;;;;;;17.13;100.00;101491.59;5059878;28;20694;-71
2023/06/20 04:17:45;;;;;;;17.33;15.47;;;;;;;17.13;100.00;101491.59;5075162;28;20687;-71
2023/06/20 04:20:14;;;;;;;17.03;15.23;;;;;;;17.17;100.00;101482.97;5060719;28;20189;-71
2023/06/20 04:22:44;;;;;;;15.83;13.90;;;;;;;17.28;100.00;101488.19;5045167;28;20193;-71
2023/06/20 04:25:11;;;;;;;17.27;14.67;;;;;;;17.34;100.00;101480.44;5059575;28;20239;-71
2023/06/20 04:27:37;;;;;;;16.53;14.20;;;;;;;17.38;100.00;101474.41;5060097;28;20184;-71
2023/06/20 04:30:05;;;;;;;16.00;14.30;;;;;;;17.43;100.00;101480.47;5059998;28;20261;-71
2023/06/20 04:32:31;;;;;;;16.13;14.50;;;;;;;17.47;100.00;101471.88;5059751;28;20565;-71
2023/06/20 04:34:57;;;;;;;17.37;15.00;;;;;;;17.51;100.00;101477.06;5076640;28;20216;-71
2023/06/20 04:37:23;;;;;;;16.80;14.23;;;;;;;17.55;100.00;101478.78;5061098;28;20195;-71
2023/06/20 04:39:49;;;;;;;17.07;14.97;;;;;;;17.62;100.00;101475.34;5079127;28;20677;-71
2023/06/20 04:42:16;;;;;;;17.60;15.47;;;;;;;17.68;100.00;101480.53;5058533;28;20850;-71
2023/06/20 04:44:44;;;;;;;16.33;14.30;;;;;;;17.72;100.00;101477.06;5065072;28;20221;-71
2023/06/20 04:47:12;;;;;;;17.13;15.23;;;;;;;17.77;100.00;101483.13;5066442;28;20209;-72
2023/06/20 04:49:40;;;;;;;17.10;14.33;;;;;;;17.82;100.00;101478.78;5060547;28;20220;-72
2023/06/20 04:52:06;;;;;;;16.10;14.07;;;;;;;17.85;100.00;101484.00;5064649;28;20208;-71
2023/06/20 04:54:32;;;;;;;16.67;14.83;;;;;;;17.93;100.00;101476.22;5064472;28;20220;-70
2023/06/20 04:56:57;;;;;;;15.13;13.60;;;;;;;18.04;100.00;101479.66;5060009;28;20508;-70
2023/06/20 04:59:23;;;;;;;15.50;13.13;;;;;;;18.20;100.00;101491.75;5058698;28;20275;-70
2023/06/20 05:01:51;;;;;;;16.07;14.37;;;;;;;18.34;100.00;101487.44;5078994;28;20674;-70
2023/06/20 05:04:18;;;;;;;16.83;15.13;;;;;;;18.50;100.00;101490.00;5063425;28;20205;-70
2023/06/20 05:06:46;;;;;;;15.27;13.77;;;;;;;18.58;100.00;101490.84;5079215;28;20637;-70
2023/06/20 05:09:12;;;;;;;16.73;14.70;;;;;;;18.73;100.00;101488.19;5058896;28;20189;-70
2023/06/20 05:11:37;;;;;;;15.83;14.27;;;;;;;18.82;100.00;101489.88;5065061;28;20965;-70
2023/06/20 05:14:03;;;;;;;16.17;13.37;;;;;;;18.88;100.00;101495.91;5061497;28;20205;-70
2023/06/20 05:16:28;;;;;;;15.60;13.67;;;;;;;18.88;100.00;101500.25;5061543;28;20837;-71
2023/06/20 05:18:54;;;;;;;14.83;13.40;;;;;;;18.84;100.00;101494.19;5063598;28;20519;-71
2023/06/20 05:21:19;;;;;;;15.83;14.17;;;;;;;18.86;100.00;101496.78;5059069;28;20193;-71
2023/06/20 05:23:45;;;;;;;15.97;13.67;;;;;;;18.95;100.00;101500.22;5061321;28;20200;-71
2023/06/20 05:26:11;;;;;;;16.07;14.20;;;;;;;19.14;100.00;101503.59;5059131;28;20595;-71
2023/06/20 05:28:37;;;;;;;14.77;13.13;;;;;;;19.31;100.00;101504.41;5058899;28;20205;-71
2023/06/20 05:31:03;;;;;;;17.63;14.93;;;;;;;19.40;100.00;101494.81;5060824;28;20223;-71
2023/06/20 05:33:30;;;;;;;15.10;13.17;;;;;;;19.49;100.00;101505.16;5060211;28;20288;-71
2023/06/20 05:35:57;;;;;;;16.43;14.27;;;;;;;19.45;100.00;101510.38;5064534;28;20216;-71
2023/06/20 05:38:22;;;;;;;13.77;12.33;;;;;;;19.60;100.00;101505.09;5061137;28;20690;-71
2023/06/20 05:40:48;;;;;;;15.73;13.83;;;;;;;19.76;100.00;101511.91;5063019;28;20196;-71
2023/06/20 05:43:13;;;;;;;16.90;14.23;;;;;;;19.91;100.00;101504.88;5061922;28;20247;-71
2023/06/20 05:45:39;;;;;;;15.73;13.13;;;;;;;20.14;100.00;101499.50;5057071;28;20224;-71
2023/06/20 05:48:04;;;;;;;14.60;13.03;;;;;;;20.33;100.00;101480.22;5082934;28;20200;-71
2023/06/20 05:50:32;;;;;;;13.77;12.33;;;;;;;20.52;100.00;101476.56;5058775;28;20220;-71
2023/06/20 05:52:59;;;;;;;13.93;11.87;;;;;;;20.75;100.00;101464.13;5058203;28;20196;-71
2023/06/20 05:55:24;;;;;;;12.93;10.23;;;;;;;20.99;100.00;101446.50;5065237;28;20224;-71
2023/06/20 05:57:50;;;;;;;10.73;9.53;;;;;;;21.14;100.00;101443.66;5045686;28;20197;-71
2023/06/20 06:00:16;;;;;;;13.07;9.60;;;;;;;21.18;100.00;101462.72;5068319;28;20199;-71
2023/06/20 06:02:47;;;;;;;8.57;7.77;;;;;;;21.22;100.00;101453.97;5061191;28;20247;-71
2023/06/20 06:05:12;;;;;;;10.17;8.27;;;;;;;21.38;100.00;101458.94;5064499;28;20914;-71
2023/06/20 06:07:38;;;;;;;8.47;7.57;;;;;;;21.57;100.00;101459.53;5063467;28;20197;-71
2023/06/20 06:10:07;;;;;;;8.80;7.90;;;;;;;21.71;100.00;101465.44;5064429;28;20213;-71
2023/06/20 06:12:34;;;;;;;10.83;7.97;;;;;;;21.71;100.00;101468.91;5063351;28;20208;-71
2023/06/20 06:14:59;;;;;;;10.80;7.70;;;;;;;21.90;100.00;101464.25;5066475;28;20628;-71
2023/06/20 06:17:26;;;;;;;7.57;6.87;;;;;;;22.00;100.00;101455.38;5066345;28;20213;-71
2023/06/20 06:19:52;;;;;;;8.80;7.13;;;;;;;22.21;100.00;101460.22;5063245;28;20201;-71
2023/06/20 06:22:20;;;;;;;7.17;6.47;;;;;;;22.41;100.00;101423.31;5063969;28;20662;-71
2023/06/20 06:24:46;;;;;;;7.97;6.63;;;;;;;22.49;100.00;101404.00;5064628;28;21000;-71
2023/06/20 06:27:11;;;;;;;9.10;6.87;;;;;;;22.57;100.00;101443.88;5061804;28;20189;-71
2023/06/20 06:29:39;;;;;;;8.23;6.17;;;;;;;22.74;100.00;101456.59;5056765;28;20279;-71
2023/06/20 06:32:05;;;;;;;7.50;6.67;;;;;;;22.91;100.00;101403.09;5067951;28;20200;-71
2023/06/20 06:34:30;;;;;;;6.93;5.77;;;;;;;23.13;100.00;101390.41;5062008;28;20785;-71
2023/06/20 06:36:56;;;;;;;6.10;5.50;;;;;;;23.32;100.00;101369.06;5064417;28;20200;-71
2023/06/20 06:39:22;;;;;;;6.63;5.80;;;;;;;23.40;100.00;101325.28;5062544;28;20264;-71
2023/06/20 06:41:51;;;;;;;8.57;6.30;;;;;;;23.47;100.00;101316.38;5065514;28;20650;-71
2023/06/20 06:44:17;;;;;;;5.57;5.07;;;;;;;23.69;100.00;101330.63;5061349;28;20227;-71
2023/06/20 06:46:43;;;;;;;8.30;5.50;;;;;;;23.87;100.00;101318.78;5065054;28;20181;-71
2023/06/20 06:49:09;;;;;;;7.43;5.72;;;;;;;23.93;100.00;101311.66;5066351;28;20189;-71
2023/06/20 06:51:37;;;;;;;6.53;5.90;;;;;;;23.86;100.00;101285.69;5062007;28;20584;-71
2023/06/20 06:54:02;;;;;;;7.93;6.20;;;;;;;23.74;100.00;101299.97;5061701;28;20843;-71
2023/06/20 06:56:28;;;;;;;7.43;6.43;;;;;;;23.67;100.00;101331.56;5062946;28;20205;-71
2023/06/20 06:58:57;;;;;;;8.83;5.97;;;;;;;23.59;100.00;101347.47;5064631;28;20216;-71
2023/06/20 07:01:24;;;;;;;8.37;6.40;;;;;;;23.60;100.00;101343.94;5062487;28;20293;-71
2023/06/20 07:03:49;;;;;;;8.43;6.67;;;;;;;23.57;100.00;101345.78;5066919;28;20189;-71
2023/06/20 07:06:15;;;;;;;7.00;6.30;;;;;;;23.64;100.00;101331.63;5061454;28;20213;-71
2023/06/20 07:08:40;;;;;;;9.80;6.20;;;;;;;23.68;100.00;101341.13;5065400;28;20292;-71
2023/06/20 07:11:06;;;;;;;8.73;6.70;;;;;;;23.99;100.00;101328.97;5059639;28;20300;-71
2023/06/20 07:13:31;;;;;;;6.90;6.20;;;;;;;24.15;100.00;101306.69;5060821;28;20185;-71
2023/06/20 07:15:57;;;;;;;7.40;6.43;;;;;;;24.06;100.00;101299.97;5061186;28;20304;-71
2023/06/20 07:18:22;;;;;;;8.68;6.00;;;;;;;24.26;100.00;101307.25;5062049;28;20262;-71
2023/06/20 07:20:48;;;;;;;9.02;6.45;;;;;;;24.38;100.00;101323.44;5066096;28;20192;-71
2023/06/20 07:23:13;;;;;;;7.30;6.05;;;;;;;24.52;100.00;101308.19;5065062;28;20529;-71
2023/06/20 07:25:38;;;;;;;6.25;5.70;;;;;;;24.78;100.00;101317.91;5066209;28;21225;-71
2023/06/20 07:28:04;;;;;;;7.63;5.97;;;;;;;24.73;97.88;101244.66;5060416;28;20609;-71
2023/06/20 07:30:31;;;;;;;7.25;5.47;;;;;;;24.86;99.00;101263.50;5063516;28;20247;-71
2023/06/20 07:32:56;;;;;;;8.63;5.90;;;;;;;24.66;100.00;101273.72;5062404;28;20236;-71
2023/06/20 07:35:21;;;;;;;6.35;5.65;;;;;;;24.56;99.94;101273.13;5059451;28;20311;-71
2023/06/20 07:37:47;;;;;;;7.85;5.75;;;;;;;24.68;98.86;101269.31;5064310;28;20232;-71
2023/06/20 07:40:12;;;;;;;6.25;5.63;;;;;;;24.55;94.54;101245.22;5060588;28;20189;-70
2023/06/20 07:42:38;;;;;;;7.32;5.75;;;;;;;24.53;99.52;101290.69;5061246;28;20204;-71
2023/06/20 07:45:03;;;;;;;7.50;6.25;;;;;;;24.53;95.21;101267.09;5061241;28;20212;-71
2023/06/20 07:47:29;;;;;;;8.00;6.78;;;;;;;24.39;93.41;101248.34;5064600;28;20198;-71
2023/06/20 07:49:54;;;;;;;6.70;6.00;;;;;;;24.53;94.10;101246.16;5063350;28;20213;-71
2023/06/20 07:52:20;;;;;;;8.50;6.38;;;;;;;24.67;94.54;101246.66;5062001;28;20201;-71
2023/06/20 07:54:45;;;;;;;6.25;5.65;;;;;;;24.93;98.46;101271.09;5062635;28;20701;-71
2023/06/20 07:57:11;;;;;;;7.70;6.35;;;;;;;25.11;94.56;101244.28;5059545;28;20197;-71
2023/06/20 07:59:36;;;;;;;6.97;6.28;;;;;;;25.30;90.44;101224.41;5059776;28;20203;-70
2023/06/20 08:02:01;;;;;;;7.07;5.85;;;;;;;25.30;84.31;101198.19;5055039;28;20200;-71
2023/06/20 08:04:27;;;;;;;7.45;5.40;;;;;;;25.46;81.36;101180.97;5056321;28;20670;-72
2023/06/20 08:06:52;;;;;;;6.88;5.95;;;;;;;25.69;84.50;101195.91;5060038;28;20204;-71
2023/06/20 08:09:18;;;;;;;6.22;5.38;;;;;;;25.69;80.53;101178.38;5058425;28;20258;-71
2023/06/20 08:11:43;;;;;;;6.55;5.60;;;;;;;25.64;85.64;101195.22;5060676;28;20244;-71
2023/06/20 08:14:10;;;;;;;6.35;5.75;;;;;;;25.75;83.85;101191.28;5060586;28;20634;-71
2023/06/20 08:16:35;;;;;;;6.05;5.55;;;;;;;25.75;83.74;101196.53;5058197;28;20193;-71
2023/06/20 08:19:01;;;;;;;6.65;5.97;;;;;;;25.94;82.73;101201.97;5062104;28;20224;-71
2023/06/20 08:21:26;;;;;;;6.28;5.65;;;;;;;25.84;79.09;101188.28;5060060;28;20564;-71
2023/06/20 08:23:52;;;;;;;7.35;6.05;;;;;;;25.88;77.56;101181.16;5060506;28;20670;-71
2023/06/20 08:26:17;;;;;;;6.57;5.70;;;;;;;26.05;78.92;101199.78;5060781;28;20224;-71
2023/06/20 08:28:42;;;;;;;6.93;5.65;;;;;;;25.80;81.03;101202.47;5061878;28;20196;-71
2023/06/20 08:31:08;;;;;;;7.47;6.13;;;;;;;26.10;79.07;101189.97;5057604;28;20217;-71
2023/06/20 08:33:33;;;;;;;6.70;5.93;;;;;;;25.99;75.79;101176.38;5056822;28;20197;-71
2023/06/20 08:35:59;;;;;;;6.18;5.57;;;;;;;25.99;77.03;101192.16;5060648;28;20256;-71
2023/06/20 08:38:24;;;;;;;8.88;6.20;;;;;;;26.08;78.38;101200.53;5057975;28;20575;-71
2023/06/20 08:40:50;;;;;;;6.38;5.78;;;;;;;26.27;74.01;101179.66;5056511;28;20185;-71
2023/06/20 08:43:16;;;;;;;6.90;5.70;;;;;;;26.51;75.64;101182.16;5059333;28;20219;-71
2023/06/20 08:45:42;;;;;;;8.88;5.68;;;;;;;26.58;71.55;101170.53;5058739;28;20217;-72
2023/06/20 08:48:08;;;;;;;6.30;5.70;;;;;;;26.43;68.88;101149.25;5057311;28;20200;-71
2023/06/20 08:50:34;;;;;;;6.10;5.50;;;;;;;26.29;71.29;101173.41;5060592;28;20254;-71
2023/06/20 08:53:00;;;;;;;6.38;5.60;;;;;;;26.46;71.33;101181.50;5061759;28;20197;-71
2023/06/20 08:55:28;;;;;;;7.13;5.38;;;;;;;26.54;69.40;101170.66;5056111;28;20717;-71
2023/06/20 08:57:55;;;;;;;8.52;6.45;;;;;;;26.82;72.26;101190.53;5060805;28;20193;-72
2023/06/20 09:00:21;;;;;;;8.43;6.28;;;;;;;26.90;73.82;101190.22;5057150;28;20196;-72
2023/06/20 09:02:51;;;;;;;6.80;6.10;;;;;;;26.96;68.01;101164.50;5058089;28;20614;-71
2023/06/20 09:05:17;;;;;;;7.57;6.35;;;;;;;26.83;68.90;101172.97;5055357;28;20220;-71
2023/06/20 09:07:43;;;;;;;7.45;6.40;;;;;;;27.10;73.54;101200.72;5077528;28;20230;-71
2023/06/20 09:10:11;;;;;;;7.18;6.43;;;;;;;27.08;69.66;101185.00;5062441;28;20262;-71
2023/06/20 09:12:51;;;;;;;8.40;6.70;;;;;;;26.52;75.74;101218.03;5058638;28;20288;-71
2023/06/20 09:15:19;;;;;;;7.18;6.47;;;;;;;26.50;72.04;101211.13;5052039;28;20212;-71
2023/06/20 09:17:48;;;;;;;7.93;6.45;;;;;;;26.47;72.42;101196.34;5062479;28;20577;-71
2023/06/20 09:20:14;;;;;;;6.78;6.07;;;;;;;26.69;70.91;101193.72;5061440;28;20668;-71
2023/06/20 09:22:41;;;;;;;7.18;6.35;;;;;;;26.78;68.20;101182.81;5060123;28;20185;-71
2023/06/20 09:25:08;;;;;;;6.95;6.20;;;;;;;26.70;66.56;101180.50;5058366;28;21076;-71
2023/06/20 09:27:35;;;;;;;7.70;6.40;;;;;;;27.00;67.06;101183.63;5059607;28;20192;-71
2023/06/20 09:30:00;;;;;;;7.55;5.95;;;;;;;27.21;66.64;101185.41;5056475;28;20237;-71
2023/06/20 09:32:26;;;;;;;6.72;6.13;;;;;;;27.01;65.13;101174.81;5058222;28;20239;-71
2023/06/20 09:34:51;;;;;;;8.63;6.22;;;;;;;27.19;69.53;101197.75;5060992;28;20240;-71
2023/06/20 09:37:17;;;;;;;8.98;6.82;;;;;;;26.35;70.55;101209.97;5051726;28;20236;-71
2023/06/20 09:39:43;;;;;;;7.75;6.32;;;;;;;26.24;77.83;101255.97;5049902;28;20200;-71
2023/06/20 09:42:13;;;;;;;7.40;6.63;;;;;;;26.49;72.71;101223.44;5059284;28;20200;-71
2023/06/20 09:44:41;;;;;;;7.85;7.13;;;;;;;26.49;77.18;101246.19;5056282;28;20686;-71
2023/06/20 09:47:07;;;;;;;9.55;7.15;;;;;;;25.96;81.46;101273.63;5059355;28;20238;-71
2023/06/20 09:49:39;;;;;;;8.63;7.60;;;;;;;25.80;83.88;101286.47;5065765;28;20204;-71
2023/06/20 09:52:07;;;;;;;9.65;7.80;;;;;;;25.44;87.89;101315.72;5060496;28;20376;-71
2023/06/20 09:54:56;;;;;;;8.95;7.10;;;;;;;25.83;86.31;101309.94;5060502;28;20219;-71
2023/06/20 09:57:29;;;;;;;8.32;7.40;;;;;;;25.87;85.25;101298.44;5057056;28;20197;-71
2023/06/20 09:59:56;;;;;;;14.55;7.65;;;;;;;25.85;88.88;101323.03;5066607;28;20193;-71
2023/06/20 10:02:25;;;;;;;8.30;6.75;;;;;;;25.89;88.50;101325.50;5061384;28;20189;-72
2023/06/20 10:04:52;;;;;;;10.13;7.15;;;;;;;26.03;82.68;101286.50;5058973;28;20217;-70
2023/06/20 10:07:21;;;;;;;6.78;6.05;;;;;;;25.89;82.86;101293.13;5060097;28;20287;-70
2023/06/20 10:09:48;;;;;;;6.60;6.00;;;;;;;25.96;84.83;101298.13;5063910;28;20221;-70
2023/06/20 10:12:14;;;;;;;7.32;6.00;;;;;;;25.70;84.57;101292.91;5057829;28;20217;-72
2023/06/20 10:14:40;;;;;;;7.13;6.18;;;;;;;25.98;84.51;101293.72;5060370;28;20216;-72
2023/06/20 10:17:07;;;;;;;7.95;6.50;;;;;;;25.92;79.99;101275.53;5056404;28;20200;-70
2023/06/20 10:19:52;;;;;;;8.50;7.05;;;;;;;26.08;83.76;101279.31;5061384;28;20236;-70
2023/06/20 10:22:42;;;;;;;8.82;6.80;;;;;;;25.93;80.32;101264.09;5058232;28;20201;-70
2023/06/20 10:25:15;;;;;;;7.60;6.47;;;;;;;25.96;80.72;101266.63;5052319;28;20229;-70
2023/06/20 10:27:54;;;;;;;7.82;6.65;;;;;;;25.89;82.21;101273.00;5060284;28;20197;-70
2023/06/20 10:30:50;;;;;;;6.70;6.10;;;;;;;26.14;85.46;101291.34;5056019;28;20271;-72
2023/06/20 10:33:23;;;;;;;7.75;6.95;;;;;;;25.96;80.94;101257.88;5059993;28;20242;-70
2023/06/20 10:35:48;;;;;;;9.65;6.80;;;;;;;25.93;84.66;101274.59;5060192;28;20212;-71
2023/06/20 10:38:14;;;;;;;7.35;6.50;;;;;;;25.98;87.32;101298.97;5057272;28;20508;-72
2023/06/20 10:40:39;;;;;;;8.32;7.22;;;;;;;26.10;87.31;101301.13;5061753;28;20194;-71
2023/06/20 10:43:07;;;;;;;8.00;7.15;;;;;;;26.28;89.77;101305.69;5062894;28;20228;-71
2023/06/20 10:45:32;;;;;;;9.93;7.35;;;;;;;26.15;86.90;101280.78;5060499;28;20213;-71
2023/06/20 10:47:57;;;;;;;8.32;6.75;;;;;;;26.26;83.64;101262.88;5064061;28;20194;-72
2023/06/20 10:50:23;;;;;;;7.15;6.45;;;;;;;26.44;87.05;101272.66;5063419;28;20698;-71
2023/06/20 10:52:49;;;;;;;8.73;7.47;;;;;;;26.21;83.91;101261.31;5065192;28;20259;-72
2023/06/20 10:55:20;;;;;;;7.55;6.85;;;;;;;26.45;85.64;101274.38;5030826;28;20230;-72
2023/06/20 10:57:50;;;;;;;7.78;6.53;;;;;;;26.60;90.19;101286.94;5021118;28;20359;-71
2023/06/20 11:00:18;;;;;;;7.13;6.53;;;;;;;26.68;81.85;101250.72;5018660;28;20198;-72
2023/06/20 11:02:54;;;;;;;7.55;6.80;;;;;;;26.60;83.70;101252.78;5024793;28;20198;-72
2023/06/20 11:05:26;;;;;;;7.93;6.53;;;;;;;26.59;88.66;101277.34;5028486;28;20602;-72
2023/06/20 11:08:08;;;;;;;8.02;7.13;;;;;;;26.74;85.97;101252.22;5028108;28;20272;-73
2023/06/20 11:10:35;;;;;;;10.63;7.18;;;;;;;27.05;88.52;101271.09;5037254;28;20710;-72
2023/06/20 11:13:05;;;;;;;8.27;7.13;;;;;;;27.14;83.90;101226.84;5023929;28;20273;-71
2023/06/20 11:15:32;;;;;;;7.90;7.18;;;;;;;27.11;82.55;101226.97;5022869;28;20225;-71